Time;durP1;ratioP1;P1;durP2;ratioP2;P2;SDS_P1;SDS_P2;PMS_P1;PMS_P2;Temp;Humidity;BMP_temperature;BMP_pressure;BME280_temperature;BME280_humidity;BME280_pressure;Samples;Min_cycle;Max_cycle;Signal;HPM_P1;HPM_P2
2022/08/06 00:02:03;;;;;;;19.80;14.07;;;;;;;22.53;62.40;100065.17;1700490;81;25644;-68
2022/08/06 00:04:29;;;;;;;15.08;12.53;;;;;;;22.54;62.69;100068.71;1716288;83;28026;-68
2022/08/06 00:06:56;;;;;;;15.18;12.68;;;;;;;22.52;62.80;100066.35;1717143;83;25687;-68
2022/08/06 00:09:22;;;;;;;14.68;13.13;;;;;;;22.52;62.71;100062.81;1702555;83;25612;-68
2022/08/06 00:11:49;;;;;;;16.65;12.98;;;;;;;22.50;62.85;100059.08;1691757;83;26570;-68
2022/08/06 00:14:16;;;;;;;14.30;12.28;;;;;;;22.47;63.02;100064.00;1705257;83;25769;-68
2022/08/06 00:16:42;;;;;;;14.58;13.15;;;;;;;22.46;63.01;100060.25;1689394;83;27368;-68
2022/08/06 00:19:08;;;;;;;13.40;12.00;;;;;;;22.45;63.06;100058.70;1707525;83;25721;-68
2022/08/06 00:21:36;;;;;;;15.30;12.25;;;;;;;22.41;62.97;100050.44;1688535;83;25631;-68
2022/08/06 00:24:04;;;;;;;13.55;12.15;;;;;;;22.40;63.11;100060.48;1695839;83;25496;-68
2022/08/06 00:26:31;;;;;;;13.83;12.28;;;;;;;22.36;63.25;100057.13;1700698;83;25851;-68
2022/08/06 00:28:57;;;;;;;14.03;12.68;;;;;;;22.34;63.26;100060.87;1693531;83;27378;-69
2022/08/06 00:31:24;;;;;;;18.65;12.30;;;;;;;22.31;63.45;100058.13;1717316;83;25647;-70
2022/08/06 00:33:50;;;;;;;13.75;12.10;;;;;;;22.28;63.51;100061.66;1717187;83;25726;-69
2022/08/06 00:36:17;;;;;;;17.20;13.25;;;;;;;22.25;63.77;100061.81;1691264;83;25716;-69
2022/08/06 00:38:43;;;;;;;14.98;13.20;;;;;;;22.22;63.68;100051.61;1688626;83;26284;-69
2022/08/06 00:41:11;;;;;;;15.35;13.03;;;;;;;22.18;63.84;100056.31;1688328;83;27413;-69
2022/08/06 00:43:37;;;;;;;16.73;12.40;;;;;;;22.15;63.91;100063.41;1700402;83;25691;-68
2022/08/06 00:46:04;;;;;;;16.52;12.78;;;;;;;22.12;64.03;100061.44;1719857;82;25553;-69
2022/08/06 00:48:30;;;;;;;15.48;11.68;;;;;;;22.11;64.05;100068.72;1712791;82;25606;-69
2022/08/06 00:50:57;;;;;;;13.45;12.05;;;;;;;22.08;64.00;100072.25;1713003;82;25629;-69
2022/08/06 00:53:25;;;;;;;15.50;12.90;;;;;;;22.04;64.14;100069.50;1744941;81;27321;-69
2022/08/06 00:55:51;;;;;;;17.50;13.35;;;;;;;22.00;64.23;100066.75;1712773;82;25720;-68
2022/08/06 00:58:18;;;;;;;17.98;12.68;;;;;;;21.97;64.20;100062.61;1733857;82;25555;-68
2022/08/06 01:00:44;;;;;;;17.20;13.30;;;;;;;21.94;64.24;100070.28;1712935;82;25691;-68
2022/08/06 01:03:11;;;;;;;16.10;12.78;;;;;;;21.91;64.54;100065.55;1712981;82;25484;-68
2022/08/06 01:05:37;;;;;;;14.75;12.68;;;;;;;21.86;64.52;100066.72;1712868;82;27328;-68
2022/08/06 01:08:04;;;;;;;16.40;12.33;;;;;;;21.83;64.66;100070.27;1712938;82;25654;-68
2022/08/06 01:10:30;;;;;;;16.15;12.88;;;;;;;21.80;64.76;100069.67;1713017;82;25495;-68
2022/08/06 01:12:57;;;;;;;16.80;12.93;;;;;;;21.77;64.93;100066.31;1712733;82;25661;-68
2022/08/06 01:15:23;;;;;;;15.23;13.20;;;;;;;21.73;65.06;100061.41;1712948;82;25679;-68
2022/08/06 01:17:57;;;;;;;16.20;13.88;;;;;;;21.70;64.96;100067.09;1712924;82;27397;-68
2022/08/06 01:20:41;;;;;;;16.82;13.10;;;;;;;21.66;65.29;100074.56;1717251;82;25697;-68
2022/08/06 01:23:43;;;;;;;17.00;13.95;;;;;;;21.62;65.27;100084.76;1742722;82;26234;-68
2022/08/06 01:26:17;;;;;;;15.50;13.80;;;;;;;21.58;65.58;100082.59;1742323;82;25595;-68
2022/08/06 01:28:49;;;;;;;15.25;13.25;;;;;;;21.53;65.57;100094.77;1721669;82;25702;-68
2022/08/06 01:31:37;;;;;;;17.62;14.50;;;;;;;21.50;65.47;100092.78;1741886;82;27409;-69
2022/08/06 01:34:34;;;;;;;18.35;14.83;;;;;;;21.45;65.47;100080.75;1737375;82;25381;-68
2022/08/06 01:37:24;;;;;;;18.52;13.83;;;;;;;21.38;65.64;100078.75;1712981;82;25598;-67
2022/08/06 01:40:00;;;;;;;14.78;13.28;;;;;;;21.34;65.87;100080.72;1704510;82;25814;-68
2022/08/06 01:42:30;;;;;;;15.70;14.03;;;;;;;21.27;65.84;100075.98;1723008;82;26299;-68
2022/08/06 01:45:01;;;;;;;14.23;12.60;;;;;;;21.23;66.03;100083.44;1712854;82;29544;-68
2022/08/06 01:47:31;;;;;;;15.75;13.75;;;;;;;21.18;66.15;100087.94;1716450;82;25712;-68
2022/08/06 01:50:02;;;;;;;15.63;14.07;;;;;;;21.13;66.41;100097.93;1717979;82;25759;-68
2022/08/06 01:52:36;;;;;;;17.48;13.90;;;;;;;21.09;66.32;100084.73;1734534;82;26380;-68
2022/08/06 01:55:07;;;;;;;17.80;14.68;;;;;;;21.03;66.37;100087.66;1726132;82;25715;-68
2022/08/06 01:57:35;;;;;;;16.07;14.47;;;;;;;20.98;66.43;100092.94;1747907;82;27974;-68
2022/08/06 02:00:06;;;;;;;16.90;14.60;;;;;;;20.94;66.56;100087.98;1742873;82;25629;-68
2022/08/06 02:02:35;;;;;;;15.83;14.23;;;;;;;20.89;66.66;100089.73;1717935;82;26327;-68
2022/08/06 02:05:04;;;;;;;16.10;14.50;;;;;;;20.84;67.01;100084.59;1718151;82;26295;-68
2022/08/06 02:07:35;;;;;;;17.82;15.58;;;;;;;20.80;67.11;100085.95;1718316;82;25634;-68
2022/08/06 02:10:05;;;;;;;17.98;13.70;;;;;;;20.76;67.18;100085.75;1717993;82;27275;-68
2022/08/06 02:12:34;;;;;;;17.75;15.88;;;;;;;20.71;67.28;100078.05;1718237;82;25629;-68
2022/08/06 02:15:04;;;;;;;;;;;;;;;20.67;67.36;100073.69;1720709;82;25946;-68
2022/08/06 02:17:48;;;;;;;18.27;13.90;;;;;;;20.62;67.74;100080.89;1717926;82;25620;-68
2022/08/06 02:20:20;;;;;;;18.92;15.15;;;;;;;20.56;67.63;100077.72;1718146;82;25868;-68
2022/08/06 02:22:49;;;;;;;17.48;15.38;;;;;;;20.51;67.74;100068.47;1710022;82;27257;-68
2022/08/06 02:25:18;;;;;;;15.75;14.20;;;;;;;20.46;67.83;100073.72;1738925;82;25743;-68
2022/08/06 02:27:51;;;;;;;15.63;13.98;;;;;;;20.43;68.08;100069.02;1718133;82;26251;-68
2022/08/06 02:30:18;;;;;;;15.35;13.90;;;;;;;20.41;68.10;100070.55;1755770;81;25787;-68
2022/08/06 02:32:46;;;;;;;16.80;15.20;;;;;;;20.38;68.34;100076.80;1717863;82;25680;-69
2022/08/06 02:35:13;;;;;;;17.57;15.55;;;;;;;20.34;68.67;100076.19;1718063;82;27382;-69
2022/08/06 02:37:54;;;;;;;17.45;15.13;;;;;;;20.32;68.50;100073.63;1717924;82;25753;-69
2022/08/06 02:40:25;;;;;;;17.55;15.75;;;;;;;20.28;68.47;100071.45;1731506;82;25636;-68
2022/08/06 02:43:01;;;;;;;18.37;15.38;;;;;;;20.22;68.62;100066.88;1723900;82;26488;-68
2022/08/06 02:45:45;;;;;;;21.07;16.42;;;;;;;20.19;68.97;100064.10;1709892;82;25712;-68
2022/08/06 02:48:36;;;;;;;17.20;15.40;;;;;;;20.13;69.15;100067.79;1725674;81;27987;-68
2022/08/06 02:51:07;;;;;;;20.55;16.07;;;;;;;20.10;69.48;100066.58;1733013;81;25580;-68
2022/08/06 02:54:00;;;;;;;24.32;18.30;;;;;;;20.06;69.78;100067.14;1740669;81;25649;-69
2022/08/06 02:56:28;;;;;;;21.35;18.25;;;;;;;20.02;70.04;100067.67;1710462;82;25836;-67
2022/08/06 02:58:58;;;;;;;19.87;16.90;;;;;;;19.99;70.45;100067.65;1718202;82;25646;-67
2022/08/06 03:01:34;;;;;;;22.15;17.95;;;;;;;19.96;70.63;100067.24;1739232;82;28045;-68
2022/08/06 03:04:06;;;;;;;19.55;17.42;;;;;;;19.92;70.90;100063.69;1730096;82;25744;-68
2022/08/06 03:06:35;;;;;;;19.30;15.55;;;;;;;19.88;70.95;100057.36;1725586;82;25439;-68
2022/08/06 03:09:05;;;;;;;17.35;15.28;;;;;;;19.85;70.78;100060.08;1717306;82;25692;-68
2022/08/06 03:11:35;;;;;;;18.73;16.70;;;;;;;19.83;70.72;100058.30;1718438;82;25688;-68
2022/08/06 03:14:04;;;;;;;18.37;15.15;;;;;;;19.81;71.03;100053.78;1718278;81;27316;-68
2022/08/06 03:16:34;;;;;;;18.45;16.20;;;;;;;19.78;71.08;100056.11;1718289;82;25701;-68
2022/08/06 03:19:02;;;;;;;19.40;16.90;;;;;;;19.76;71.09;100050.19;1747735;81;25980;-68
2022/08/06 03:21:31;;;;;;;20.25;18.15;;;;;;;19.75;71.31;100053.31;1718187;82;25860;-68
2022/08/06 03:24:00;;;;;;;22.27;19.23;;;;;;;19.76;71.88;100076.26;1745852;82;25690;-68
2022/08/06 03:26:29;;;;;;;23.20;18.52;;;;;;;19.76;72.17;100084.48;1731788;82;28144;-69
2022/08/06 03:28:57;;;;;;;21.87;17.62;;;;;;;19.78;72.27;100080.81;1722967;82;25634;-68
2022/08/06 03:31:25;;;;;;;19.07;17.10;;;;;;;19.82;72.34;100080.84;1748351;82;25671;-68
2022/08/06 03:33:53;;;;;;;19.92;17.15;;;;;;;19.85;72.59;100077.91;1724101;82;25714;-68
2022/08/06 03:36:21;;;;;;;18.50;16.57;;;;;;;19.88;72.74;100078.53;1730422;82;25626;-68
2022/08/06 03:38:58;;;;;;;21.77;17.77;;;;;;;19.92;72.70;100082.90;1742305;82;27337;-68
2022/08/06 03:41:28;;;;;;;19.37;17.35;;;;;;;19.96;72.82;100081.56;1692659;83;25956;-69
2022/08/06 03:43:55;;;;;;;19.60;17.40;;;;;;;20.00;72.87;100096.09;1698383;83;25655;-69
2022/08/06 03:46:27;;;;;;;20.30;16.95;;;;;;;20.04;72.78;100102.42;1687681;83;25628;-69
2022/08/06 03:48:57;;;;;;;22.07;18.12;;;;;;;20.08;72.77;100096.97;1670468;85;25400;-67
2022/08/06 03:51:27;;;;;;;20.52;18.32;;;;;;;20.10;72.77;100094.03;1706607;83;27339;-68
2022/08/06 03:53:56;;;;;;;19.57;16.87;;;;;;;20.11;72.68;100092.09;1680706;84;25619;-68
2022/08/06 03:56:24;;;;;;;;;;;;;;;20.14;72.76;100103.67;1677261;84;25687;-68
2022/08/06 03:58:53;;;;;;;19.95;17.60;;;;;;;20.15;73.00;100110.16;1669151;84;26389;-68
2022/08/06 04:01:26;;;;;;;21.27;18.75;;;;;;;20.18;73.11;100107.84;1689054;84;25430;-68
2022/08/06 04:03:54;;;;;;;25.08;19.07;;;;;;;20.18;73.17;100114.13;1669889;84;27344;-68
2022/08/06 04:06:23;;;;;;;23.32;19.73;;;;;;;20.21;73.26;100118.05;1669830;84;25241;-68
2022/08/06 04:08:51;;;;;;;21.12;18.82;;;;;;;20.24;73.29;100118.08;1689733;84;25507;-68
2022/08/06 04:11:19;;;;;;;23.65;18.87;;;;;;;20.29;73.39;100115.58;1670301;84;26320;-67
2022/08/06 04:13:46;;;;;;;24.98;19.50;;;;;;;20.33;73.55;100111.70;1670496;84;25358;-68
2022/08/06 04:16:15;;;;;;;22.80;19.25;;;;;;;20.39;73.68;100118.22;1685287;84;27541;-67
2022/08/06 04:18:43;;;;;;;22.45;19.75;;;;;;;20.44;74.00;100117.27;1673259;84;25447;-68
2022/08/06 04:21:16;;;;;;;25.88;21.05;;;;;;;20.52;74.04;100123.62;1668501;84;25592;-68
2022/08/06 04:23:43;;;;;;;25.10;21.30;;;;;;;20.58;74.29;100108.34;1663274;84;25670;-68
2022/08/06 04:26:13;;;;;;;23.15;19.48;;;;;;;20.67;74.32;100119.03;1684474;84;25625;-68
2022/08/06 04:28:43;;;;;;;26.52;20.37;;;;;;;20.73;74.29;100127.73;1701807;83;27331;-68
2022/08/06 04:31:10;;;;;;;25.80;20.80;;;;;;;20.81;74.48;100124.64;1693337;84;25740;-68
2022/08/06 04:33:39;;;;;;;21.20;18.85;;;;;;;20.89;74.33;100124.90;1688773;84;25767;-68
2022/08/06 04:36:07;;;;;;;24.23;20.02;;;;;;;20.99;74.44;100121.98;1691628;84;26305;-68
2022/08/06 04:38:35;;;;;;;21.25;18.98;;;;;;;21.08;74.33;100121.08;1688414;84;25698;-68
2022/08/06 04:41:02;;;;;;;22.52;20.10;;;;;;;21.17;74.30;100122.69;1693389;84;27392;-68
2022/08/06 04:43:30;;;;;;;20.62;18.42;;;;;;;21.26;74.26;100125.27;1688243;84;25704;-68
2022/08/06 04:45:57;;;;;;;21.23;19.02;;;;;;;21.36;74.32;100128.48;1686403;84;25645;-69
2022/08/06 04:48:25;;;;;;;24.27;18.17;;;;;;;21.47;74.52;100134.85;1695275;83;25704;-69
2022/08/06 04:50:52;;;;;;;21.30;18.80;;;;;;;21.58;74.43;100137.63;1692019;84;25642;-69
2022/08/06 04:53:19;;;;;;;22.55;18.75;;;;;;;21.67;73.98;100147.68;1727653;82;27372;-69
2022/08/06 04:55:47;;;;;;;20.05;17.52;;;;;;;21.75;73.62;100149.88;1724523;82;25588;-69
2022/08/06 04:58:16;;;;;;;20.50;18.32;;;;;;;21.81;73.43;100155.19;1724496;82;25451;-69
2022/08/06 05:00:46;;;;;;;21.20;18.05;;;;;;;21.87;73.05;100157.77;1729342;82;25679;-69
2022/08/06 05:03:14;;;;;;;19.87;17.65;;;;;;;21.93;72.93;100170.00;1722732;82;25721;-69
2022/08/06 05:06:03;;;;;;;20.27;18.17;;;;;;;22.01;72.70;100166.66;1727857;81;27297;-69
2022/08/06 05:08:31;;;;;;;21.00;17.55;;;;;;;22.04;72.34;100178.27;1725975;82;25591;-69
2022/08/06 05:11:03;;;;;;;20.02;17.90;;;;;;;22.10;72.21;100179.48;1725820;81;25673;-68
2022/08/06 05:13:34;;;;;;;19.42;17.50;;;;;;;22.23;71.97;100188.14;1725296;82;25809;-69
2022/08/06 05:16:05;;;;;;;22.15;17.98;;;;;;;22.22;72.07;100189.91;1728698;81;25629;-68
2022/08/06 05:18:36;;;;;;;23.73;18.65;;;;;;;22.30;71.74;100202.55;1720787;82;27332;-69
2022/08/06 05:21:04;;;;;;;21.10;18.25;;;;;;;22.33;71.57;100203.93;1725080;82;25694;-69
2022/08/06 05:23:49;;;;;;;21.70;18.42;;;;;;;22.39;71.29;100204.36;1720248;82;25796;-69
2022/08/06 05:26:17;;;;;;;20.30;18.20;;;;;;;22.45;71.24;100206.13;1721047;82;25701;-71
2022/08/06 05:28:43;;;;;;;19.15;16.45;;;;;;;22.50;71.09;100207.11;1731173;82;25580;-69
2022/08/06 05:31:10;;;;;;;20.17;17.95;;;;;;;22.51;70.88;100210.85;1729509;81;27398;-69
2022/08/06 05:33:39;;;;;;;20.10;17.67;;;;;;;22.55;70.90;100208.88;1699320;82;25601;-70
2022/08/06 05:36:11;;;;;;;19.87;16.77;;;;;;;22.59;70.77;100213.61;1720550;82;25682;-69
2022/08/06 05:38:40;;;;;;;25.02;16.93;;;;;;;22.66;70.97;100224.63;1724466;82;25707;-69
2022/08/06 05:41:11;;;;;;;17.92;15.45;;;;;;;22.71;70.87;100225.62;1729127;82;25710;-70
2022/08/06 05:43:40;;;;;;;18.40;15.53;;;;;;;22.78;70.83;100228.38;1727049;82;27982;-70
2022/08/06 05:46:20;;;;;;;19.77;15.45;;;;;;;22.86;70.89;100227.19;1729419;81;25633;-70
2022/08/06 05:49:12;;;;;;;16.60;14.58;;;;;;;22.98;70.81;100245.91;1712472;82;25650;-70
2022/08/06 05:52:04;;;;;;;19.90;13.48;;;;;;;22.99;70.35;100261.29;1699929;83;25661;-69
2022/08/06 05:55:03;;;;;;;15.38;13.85;;;;;;;22.97;70.11;100276.04;1700949;83;25496;-70
2022/08/06 05:57:44;;;;;;;15.25;13.58;;;;;;;22.94;70.17;100298.31;1647705;86;27345;-69
2022/08/06 06:00:16;;;;;;;16.52;12.58;;;;;;;22.89;70.21;100315.25;1641343;85;26631;-69
2022/08/06 06:02:47;;;;;;;13.18;11.65;;;;;;;22.81;70.15;100321.33;1661083;85;25632;-69
2022/08/06 06:05:15;;;;;;;12.93;11.33;;;;;;;22.78;70.31;100319.95;1661915;85;26286;-69
2022/08/06 06:07:42;;;;;;;13.32;11.80;;;;;;;22.73;70.61;100330.77;1665288;85;25724;-69
2022/08/06 06:10:12;;;;;;;10.98;9.98;;;;;;;22.68;70.61;100330.59;1643100;85;28226;-69
2022/08/06 06:12:41;;;;;;;13.03;9.65;;;;;;;22.64;70.85;100337.26;1694873;83;25372;-69
2022/08/06 06:15:12;;;;;;;13.28;10.40;;;;;;;22.61;70.96;100336.09;1700556;83;25561;-69
2022/08/06 06:18:09;;;;;;;11.33;9.83;;;;;;;22.56;71.20;100341.38;1705167;83;25701;-68
2022/08/06 06:21:06;;;;;;;11.15;10.05;;;;;;;22.55;71.42;100343.15;1704574;83;25831;-67
2022/08/06 06:23:54;;;;;;;14.57;8.83;;;;;;;22.52;71.55;100347.45;1697701;83;27342;-68
2022/08/06 06:26:55;;;;;;;11.90;9.20;;;;;;;22.49;71.92;100346.07;1697537;83;25756;-69
2022/08/06 06:29:39;;;;;;;9.50;8.70;;;;;;;22.45;72.04;100359.06;1695375;83;25665;-69
2022/08/06 06:32:17;;;;;;;14.93;9.35;;;;;;;22.43;72.15;100360.83;1700654;83;25627;-68
2022/08/06 06:35:16;;;;;;;9.05;8.15;;;;;;;22.39;72.31;100358.66;1705753;83;25499;-68
2022/08/06 06:38:14;;;;;;;8.85;7.95;;;;;;;22.40;72.41;100364.95;1701720;83;27449;-68
2022/08/06 06:40:54;;;;;;;9.55;8.60;;;;;;;22.36;72.52;100369.85;1699745;83;26432;-69
2022/08/06 06:43:32;;;;;;;8.60;7.80;;;;;;;22.34;72.85;100369.45;1645981;86;25576;-69
2022/08/06 06:46:31;;;;;;;10.15;7.90;;;;;;;22.34;72.95;100384.61;1663483;85;25641;-69
2022/08/06 06:49:03;;;;;;;;;;;;;;;22.33;73.08;100389.91;1682760;84;25757;-69
2022/08/06 06:51:35;;;;;;;8.23;7.05;;;;;;;22.35;73.39;100388.14;1674616;85;27331;-68
2022/08/06 06:54:01;;;;;;;9.85;8.58;;;;;;;22.35;73.38;100395.03;1694716;84;25845;-68
2022/08/06 06:56:35;;;;;;;9.33;8.40;;;;;;;22.37;73.41;100389.35;1682176;84;25738;-69
2022/08/06 06:59:07;;;;;;;8.80;8.03;;;;;;;22.37;73.50;100397.62;1713249;82;26321;-69
2022/08/06 07:01:35;;;;;;;8.65;7.80;;;;;;;22.37;73.38;100405.08;1713196;82;25469;-69
2022/08/06 07:04:08;;;;;;;8.73;7.95;;;;;;;22.37;73.47;100409.20;1713257;82;27406;-69
2022/08/06 07:06:36;;;;;;;8.98;7.90;;;;;;;22.33;73.33;100404.28;1734062;82;25402;-68
2022/08/06 07:09:04;;;;;;;9.50;8.08;;;;;;;22.35;73.40;100414.32;1713302;82;25712;-69
2022/08/06 07:11:32;;;;;;;9.28;7.83;;;;;;;22.37;73.58;100421.61;1713309;82;25676;-70
2022/08/06 07:14:00;;;;;;;8.95;8.00;;;;;;;22.37;73.68;100423.80;1713391;82;25661;-70
2022/08/06 07:16:28;;;;;;;9.13;7.90;;;;;;;22.39;73.71;100422.03;1713377;82;27318;-69
2022/08/06 07:18:55;;;;;;;8.23;7.37;;;;;;;22.41;73.67;100425.19;1713133;82;25356;-69
2022/08/06 07:21:25;;;;;;;8.75;7.55;;;;;;;22.43;73.78;100421.45;1730325;82;25793;-69
2022/08/06 07:23:53;;;;;;;8.03;7.22;;;;;;;22.47;73.91;100424.22;1739261;82;26447;-69
2022/08/06 07:26:22;;;;;;;8.30;7.40;;;;;;;22.51;73.85;100425.83;1737555;82;25729;-69
2022/08/06 07:28:51;;;;;;;7.53;6.87;;;;;;;22.55;73.84;100427.21;1736404;81;27454;-69
2022/08/06 07:31:22;;;;;;;8.48;6.53;;;;;;;22.59;73.76;100444.55;1742945;81;25580;-69
2022/08/06 07:33:50;;;;;;;7.65;6.92;;;;;;;22.64;73.66;100442.79;1746477;81;25807;-69
2022/08/06 07:36:21;;;;;;;7.92;5.85;;;;;;;22.68;73.44;100440.86;1744270;81;26421;-67
2022/08/06 07:38:48;;;;;;;6.50;5.90;;;;;;;22.70;73.25;100444.00;1732997;81;25513;-67
2022/08/06 07:41:18;;;;;;;6.92;5.62;;;;;;;22.74;73.22;100447.55;1738046;82;27369;-67
2022/08/06 07:43:57;;;;;;;6.33;5.22;;;;;;;22.77;73.00;100449.36;1729356;82;25687;-66
2022/08/06 07:46:28;;;;;;;5.25;4.75;;;;;;;22.78;72.85;100454.45;1715791;82;25632;-65
2022/08/06 07:49:00;;;;;;;10.53;5.40;;;;;;;22.78;72.97;100461.95;1706778;82;26150;-68
2022/08/06 07:51:30;;;;;;;6.10;5.50;;;;;;;22.77;72.76;100468.66;1679523;83;25717;-66
2022/08/06 07:53:58;;;;;;;5.67;5.03;;;;;;;22.75;72.82;100474.55;1679760;83;27518;-65
2022/08/06 07:56:26;;;;;;;5.67;5.10;;;;;;;22.73;72.58;100483.21;1667974;83;25646;-65
2022/08/06 07:58:55;;;;;;;4.78;4.28;;;;;;;22.66;72.55;100484.56;1675057;83;25549;-65
2022/08/06 08:01:24;;;;;;;5.97;5.28;;;;;;;22.63;72.70;100481.77;1672711;83;26249;-66
2022/08/06 08:06:37;;;;;;;3.65;3.15;;;;;;;22.55;72.31;100478.98;1676453;83;27333;-65
2022/08/06 08:09:12;;;;;;;4.28;3.60;;;;;;;22.49;72.06;100482.49;1693169;83;25468;-65
2022/08/06 08:11:42;;;;;;;3.50;3.10;;;;;;;22.42;71.93;100497.61;1674852;83;25707;-65
2022/08/06 08:14:12;;;;;;;4.62;3.05;;;;;;;22.34;72.06;100489.31;1676126;83;25582;-69
2022/08/06 08:16:42;;;;;;;4.60;3.22;;;;;;;22.29;72.07;100502.67;1684338;83;25645;-68
2022/08/06 08:19:31;;;;;;;4.75;3.60;;;;;;;22.24;72.21;100496.11;1676754;83;27327;-70
2022/08/06 08:22:05;;;;;;;2.98;2.47;;;;;;;22.19;72.14;100504.92;1682762;83;25947;-67
2022/08/06 08:24:34;;;;;;;2.65;2.45;;;;;;;22.13;71.80;100509.20;1680106;83;25567;-67
2022/08/06 08:27:03;;;;;;;3.08;2.70;;;;;;;22.07;71.71;100507.98;1674720;83;25623;-67
2022/08/06 08:29:30;;;;;;;2.50;2.30;;;;;;;22.01;71.87;100515.83;1671702;83;25729;-67
2022/08/06 08:31:57;;;;;;;2.90;2.47;;;;;;;21.98;72.03;100517.15;1688286;83;27421;-68
2022/08/06 08:34:23;;;;;;;3.72;2.55;;;;;;;21.94;72.11;100528.14;1688017;83;25759;-64
2022/08/06 08:36:50;;;;;;;3.12;2.90;;;;;;;21.90;72.42;100538.34;1686147;83;25894;-67
2022/08/06 08:39:17;;;;;;;3.55;3.10;;;;;;;21.87;72.64;100541.85;1679514;83;25760;-65
2022/08/06 08:42:10;;;;;;;4.85;3.30;;;;;;;21.86;72.87;100540.26;1692490;83;25573;-67
2022/08/06 08:44:38;;;;;;;4.42;3.02;;;;;;;21.85;73.09;100556.59;1685170;83;27434;-69
2022/08/06 08:47:08;;;;;;;3.27;2.77;;;;;;;21.83;73.30;100557.56;1687786;83;25812;-72
2022/08/06 08:49:45;;;;;;;4.72;2.80;;;;;;;21.82;73.60;100568.36;1711511;82;25715;-66
2022/08/06 08:52:20;;;;;;;6.85;3.70;;;;;;;21.81;73.87;100576.40;1735714;82;27672;-68
2022/08/06 08:54:51;;;;;;;5.87;3.50;;;;;;;21.78;74.30;100589.56;1725829;81;25732;-67
2022/08/06 08:57:21;;;;;;;6.83;3.42;;;;;;;21.76;74.59;100601.52;1721657;81;27542;-68
2022/08/06 08:59:48;;;;;;;6.20;4.45;;;;;;;21.70;74.70;100613.47;1706063;82;25683;-68
2022/08/06 09:02:15;;;;;;;5.58;3.70;;;;;;;21.64;74.93;100632.88;1728640;82;25707;-69
2022/08/06 09:04:42;;;;;;;4.22;3.40;;;;;;;21.54;75.11;100649.47;1726993;81;25720;-67
2022/08/06 09:07:09;;;;;;;5.58;4.08;;;;;;;21.46;75.52;100664.27;1733519;82;25694;-69
2022/08/06 09:09:39;;;;;;;6.72;3.77;;;;;;;21.35;75.79;100668.84;1719329;81;27330;-69
2022/08/06 09:12:07;;;;;;;8.33;3.92;;;;;;;21.24;75.95;100663.98;1734018;82;34944;-69
2022/08/06 09:14:36;;;;;;;5.80;4.00;;;;;;;21.16;76.41;100656.80;1741860;81;25789;-66
2022/08/06 09:17:04;;;;;;;5.15;3.50;;;;;;;21.10;76.85;100658.31;1732051;82;25732;-65
2022/08/06 09:19:33;;;;;;;5.90;3.47;;;;;;;21.04;77.10;100676.28;1734296;82;25386;-66
2022/08/06 09:21:59;;;;;;;6.45;3.22;;;;;;;20.98;77.73;100679.16;1731171;81;27389;-66
2022/08/06 09:24:27;;;;;;;6.95;3.70;;;;;;;20.89;77.93;100680.77;1712251;82;27294;-67
2022/08/06 09:27:08;;;;;;;7.87;3.72;;;;;;;20.81;78.16;100675.77;1735449;82;25731;-68
2022/08/06 09:29:36;;;;;;;8.13;3.90;;;;;;;20.77;78.38;100661.18;1734019;82;26824;-69
2022/08/06 09:32:06;;;;;;;4.62;3.42;;;;;;;20.72;78.56;100662.84;1741265;81;25687;-67
2022/08/06 09:34:37;;;;;;;4.87;3.02;;;;;;;20.70;78.86;100681.66;1736810;81;27323;-66
2022/08/06 09:37:05;;;;;;;3.70;3.20;;;;;;;20.65;79.01;100682.79;1743161;81;25718;-66
2022/08/06 09:39:40;;;;;;;5.70;3.40;;;;;;;20.62;79.28;100689.55;1710896;82;25628;-65
2022/08/06 09:42:07;;;;;;;3.00;2.70;;;;;;;20.58;79.39;100688.70;1733904;82;25615;-65
2022/08/06 09:44:34;;;;;;;5.10;3.15;;;;;;;20.55;79.46;100685.31;1732301;82;25720;-66
2022/08/06 09:47:01;;;;;;;6.65;3.35;;;;;;;20.52;79.87;100684.11;1705277;82;27889;-69
2022/08/06 09:49:32;;;;;;;4.00;3.40;;;;;;;20.50;79.94;100702.92;1702197;82;25741;-66
2022/08/06 09:52:15;;;;;;;4.67;3.25;;;;;;;20.44;80.12;100714.77;1715856;82;25871;-67
2022/08/06 09:54:41;;;;;;;5.67;3.62;;;;;;;20.32;79.50;100730.06;1731552;81;25878;-68
2022/08/06 09:57:08;;;;;;;6.28;4.00;;;;;;;20.25;80.01;100724.45;1718239;82;25687;-66
2022/08/06 09:59:46;;;;;;;4.12;3.50;;;;;;;20.22;80.41;100728.70;1718040;82;27514;-69
2022/08/06 10:02:17;;;;;;;6.25;4.20;;;;;;;20.17;80.24;100721.34;1716808;82;25927;-66
2022/08/06 10:04:47;;;;;;;5.72;3.62;;;;;;;20.14;80.50;100720.11;1717782;82;25620;-69
2022/08/06 10:07:21;;;;;;;5.83;3.92;;;;;;;20.11;80.50;100720.86;1718096;82;25677;-67
2022/08/06 10:09:53;;;;;;;5.72;4.12;;;;;;;20.09;80.49;100713.55;1729340;81;25689;-69
2022/08/06 10:12:22;;;;;;;6.12;4.45;;;;;;;20.08;80.69;100716.88;1717138;82;27338;-66
2022/08/06 10:14:49;;;;;;;7.05;4.28;;;;;;;20.04;80.68;100721.52;1717733;82;25694;-65
2022/08/06 10:17:20;;;;;;;7.87;4.87;;;;;;;19.96;80.65;100715.67;1726132;82;25721;-66
2022/08/06 10:20:14;;;;;;;5.80;4.30;;;;;;;19.96;81.20;100712.33;1729720;82;25650;-68
2022/08/06 10:22:57;;;;;;;5.15;4.58;;;;;;;19.96;81.48;100710.96;1665697;85;25717;-66
2022/08/06 10:25:24;;;;;;;8.43;4.55;;;;;;;19.97;81.39;100718.61;1682433;83;27541;-65
2022/08/06 10:27:54;;;;;;;5.12;4.45;;;;;;;19.97;81.54;100718.61;1683724;83;25964;-66
2022/08/06 10:30:23;;;;;;;4.80;4.03;;;;;;;19.96;81.66;100726.65;1683807;83;25699;-67
2022/08/06 10:32:58;;;;;;;5.65;4.03;;;;;;;19.93;81.30;100724.63;1683954;83;25675;-66
2022/08/06 10:35:26;;;;;;;5.75;3.65;;;;;;;19.91;81.13;100722.82;1683761;83;25695;-64
2022/08/06 10:37:58;;;;;;;3.60;3.08;;;;;;;19.84;81.01;100743.27;1684066;83;28006;-66
2022/08/06 10:40:27;;;;;;;5.03;3.22;;;;;;;19.74;80.40;100756.40;1683767;83;25659;-65
2022/08/06 10:42:55;;;;;;;5.95;3.10;;;;;;;19.65;80.40;100764.58;1687048;83;30113;-66
2022/08/06 10:45:24;;;;;;;6.17;3.45;;;;;;;19.52;80.25;100761.97;1702809;83;26417;-65
2022/08/06 10:47:50;;;;;;;4.90;2.95;;;;;;;19.44;80.48;100772.56;1668485;84;25624;-65
2022/08/06 10:50:20;;;;;;;5.87;3.33;;;;;;;19.38;80.91;100777.54;1653760;85;27346;-64
2022/08/06 10:52:48;;;;;;;3.47;2.58;;;;;;;19.33;80.79;100771.54;1664690;85;25754;-65
2022/08/06 10:55:15;;;;;;;4.80;2.90;;;;;;;19.26;80.93;100771.36;1665332;85;25750;-66
2022/08/06 10:57:43;;;;;;;3.77;2.80;;;;;;;19.21;81.10;100780.67;1646131;85;25599;-65
2022/08/06 11:00:11;;;;;;;4.28;2.77;;;;;;;19.15;81.00;100789.72;1646130;85;25692;-65
2022/08/06 11:03:16;;;;;;;3.83;2.10;;;;;;;19.12;81.27;100793.75;1646090;85;27337;-65
2022/08/06 11:05:48;;;;;;;4.72;2.17;;;;;;;19.08;81.53;100805.22;1554090;91;25797;-66
2022/08/06 11:08:37;;;;;;;3.55;2.60;;;;;;;19.04;81.68;100807.88;1554233;92;25610;-66
2022/08/06 11:11:36;;;;;;;4.17;2.30;;;;;;;19.04;82.07;100803.77;1552788;91;25699;-65
2022/08/06 11:14:09;;;;;;;3.10;2.70;;;;;;;19.03;82.31;100799.42;1554275;91;25642;-65
2022/08/06 11:16:37;;;;;;;4.30;2.65;;;;;;;19.04;82.65;100804.55;1534586;92;27418;-65
2022/08/06 11:19:08;;;;;;;4.53;2.40;;;;;;;19.07;82.88;100807.73;1554185;92;25781;-65
2022/08/06 11:21:45;;;;;;;4.83;2.35;;;;;;;19.04;82.48;100814.14;1553572;90;25693;-65
2022/08/06 11:24:14;;;;;;;3.10;2.25;;;;;;;19.02;82.65;100810.97;1553833;91;25697;-65
2022/08/06 11:26:44;;;;;;;5.10;2.80;;;;;;;19.00;82.42;100816.02;1554327;91;25790;-65
2022/08/06 11:29:15;;;;;;;5.67;3.12;;;;;;;18.98;82.63;100814.17;1554306;90;27388;-65
2022/08/06 11:31:47;;;;;;;4.92;2.50;;;;;;;18.99;82.67;100804.81;1554173;92;25767;-66
2022/08/06 11:34:17;;;;;;;6.67;3.00;;;;;;;18.98;82.77;100809.28;1554313;90;25584;-65
2022/08/06 11:36:51;;;;;;;3.60;2.85;;;;;;;18.97;82.91;100800.27;1554168;92;25754;-65
2022/08/06 11:39:20;;;;;;;3.17;2.52;;;;;;;18.98;82.90;100802.42;1590872;85;25731;-66
2022/08/06 11:41:53;;;;;;;2.90;2.45;;;;;;;18.98;83.13;100793.62;1646407;85;27354;-65